TimeCDT,TemperatureF,Dew PointF,Humidity,Sea Level PressureIn,VisibilityMPH,Wind Direction,Wind SpeedMPH,Gust SpeedMPH,PrecipitationIn,Events,Conditions,WindDirDegrees,DateUTC
12:52 AM,54.0,34.0,47,29.98,10.0,WNW,6.9,-,N/A,,Clear,290,2011-10-15 05:52:00
1:52 AM,55.0,33.1,43,29.99,10.0,WNW,8.1,-,N/A,,Clear,290,2011-10-15 06:52:00
2:52 AM,54.0,34.0,47,30.00,10.0,WNW,8.1,-,N/A,,Clear,290,2011-10-15 07:52:00
3:52 AM,53.1,33.1,47,30.00,10.0,West,5.8,-,N/A,,Clear,270,2011-10-15 08:52:00
4:52 AM,46.0,36.0,68,30.03,10.0,Calm,Calm,-,N/A,,Clear,0,2011-10-15 09:52:00
5:52 AM,46.0,35.1,66,30.04,10.0,Calm,Calm,-,N/A,,Clear,0,2011-10-15 10:52:00
6:52 AM,44.1,35.1,71,30.05,10.0,WSW,5.8,-,N/A,,Clear,240,2011-10-15 11:52:00
7:52 AM,46.9,37.0,68,30.06,10.0,WSW,5.8,-,N/A,,Clear,250,2011-10-15 12:52:00
8:52 AM,54.0,37.9,55,30.09,10.0,West,4.6,-,N/A,,Clear,280,2011-10-15 13:52:00
9:52 AM,57.9,37.0,46,30.11,10.0,NW,11.5,-,N/A,,Clear,310,2011-10-15 14:52:00
11:52 AM,63.0,37.9,40,30.11,10.0,WNW,10.4,-,N/A,,Clear,290,2011-10-15 16:52:00
1:52 PM,68.0,36.0,31,30.07,10.0,NW,9.2,-,N/A,,Clear,310,2011-10-15 18:52:00
2:52 PM,70.0,35.1,28,30.06,10.0,NW,10.4,-,N/A,,Clear,310,2011-10-15 19:52:00
3:52 PM,70.0,34.0,27,30.04,10.0,Calm,Calm,-,N/A,,Clear,0,2011-10-15 20:52:00
4:52 PM,70.0,35.1,28,30.04,10.0,West,4.6,-,N/A,,Clear,260,2011-10-15 21:52:00
5:52 PM,66.9,39.9,37,30.03,10.0,SSW,4.6,-,N/A,,Clear,200,2011-10-15 22:52:00
6:52 PM,57.0,46.0,67,30.02,10.0,Calm,Calm,-,N/A,,Clear,0,2011-10-15 23:52:00
7:52 PM,54.0,43.0,66,30.02,10.0,SSE,3.5,-,N/A,,Clear,160,2011-10-16 00:52:00
9:52 PM,52.0,39.9,63,30.02,10.0,South,8.1,-,N/A,,Clear,190,2011-10-16 02:52:00
10:52 PM,55.9,39.0,53,30.01,10.0,South,5.8,-,N/A,,Clear,180,2011-10-16 03:52:00
11:52 PM,57.0,39.0,51,30.01,10.0,South,3.5,-,N/A,,Clear,190,2011-10-16 04:52:00